Gogerbank, United Kingdom
Current Conditions -  °F | °C
As of 12:50 PM on Friday 31 Oct 2014 (Local Time) from EGPH Reporting Station
Few Clouds Few Clouds  
Wind Chill: 66°   Ceiling: Unl
Heat Index: 66°   Visibility: 6mi
Dew Point: 55°   Wind: 18mph
Humidity: 68%   Direction: 210°SSW
Pressure: 29.71"   Gusts: NA
Location:  55.92°N, 3.32°W
Report Text: EGPH 311250Z 21016KT 180V240 9999 FEW025 19/13 Q1006
Loading
Personal Weather Stations






























Interactive Weather Map New forecast layout! Learn more

10-Day Weather Forecast

Advertisements
Track Severe Weather on mobile